createdAt,value
2018-07-28T00:02:08.850Z,38.10
2018-07-28T00:04:38.612Z,37.62
2018-07-28T00:07:08.412Z,38.59
2018-07-28T00:09:38.133Z,37.67
2018-07-28T00:12:08.180Z,38.60
2018-07-28T00:14:37.872Z,37.73
2018-07-28T00:17:07.638Z,38.78
2018-07-28T00:19:37.276Z,38.12
2018-07-28T00:22:06.909Z,39.41
2018-07-28T00:24:36.517Z,38.50
2018-07-28T00:27:06.159Z,38.98
2018-07-28T00:29:35.922Z,40.03
2018-07-28T00:32:05.977Z,40.36
2018-07-28T00:34:35.548Z,40.56
2018-07-28T00:37:05.533Z,39.82
2018-07-28T00:39:35.275Z,40.85
2018-07-28T00:42:05.508Z,41.02
2018-07-28T00:44:35.508Z,41.13
2018-07-28T00:47:05.339Z,40.85
2018-07-28T00:49:35.079Z,40.87
2018-07-28T00:52:04.981Z,41.34
2018-07-28T00:54:34.624Z,41.54
2018-07-28T00:57:04.597Z,40.52
2018-07-28T00:59:34.537Z,41.57
2018-07-28T01:02:04.218Z,41.00
2018-07-28T01:04:33.869Z,42.12
2018-07-28T01:07:03.565Z,41.27
2018-07-28T01:09:33.147Z,41.47
2018-07-28T01:12:03.023Z,42.27
2018-07-28T01:14:32.958Z,42.61
2018-07-28T01:17:02.964Z,43.27
2018-07-28T01:19:32.774Z,42.28
2018-07-28T01:22:02.617Z,42.46
2018-07-28T01:24:32.200Z,43.40
2018-07-28T01:27:02.047Z,43.67
2018-07-28T01:29:31.961Z,43.90
2018-07-28T01:32:01.632Z,43.84
2018-07-28T01:34:31.319Z,43.57
2018-07-28T01:37:00.986Z,44.22
2018-07-28T01:39:30.625Z,44.80
2018-07-28T01:42:00.360Z,44.37
2018-07-28T01:44:30.114Z,44.36
2018-07-28T01:46:59.741Z,44.92
2018-07-28T01:49:29.460Z,44.77
2018-07-28T01:51:59.451Z,45.94
2018-07-28T01:54:29.071Z,45.40
2018-07-28T01:56:58.642Z,45.50
2018-07-28T01:59:28.260Z,45.29
2018-07-28T02:01:58.116Z,44.19
2018-07-28T02:04:27.778Z,45.11
2018-07-28T02:06:57.461Z,45.00
2018-07-28T02:09:27.060Z,44.18
2018-07-28T02:11:56.714Z,44.58
2018-07-28T02:14:26.355Z,44.58
2018-07-28T02:16:56.129Z,43.96
2018-07-28T02:19:25.741Z,44.48
2018-07-28T02:21:55.384Z,44.09
2018-07-28T02:24:25.084Z,44.59
2018-07-28T02:26:54.759Z,45.83
2018-07-28T02:29:24.523Z,46.33
2018-07-28T02:31:54.127Z,45.71
2018-07-28T02:34:24.002Z,45.33
2018-07-28T02:36:53.693Z,46.14
2018-07-28T02:39:23.661Z,47.07
2018-07-28T02:41:53.351Z,47.14
2018-07-28T02:44:23.133Z,46.48
2018-07-28T02:46:52.913Z,47.22
2018-07-28T02:49:22.537Z,47.04
2018-07-28T02:51:52.132Z,46.66
2018-07-28T02:54:21.753Z,47.70
2018-07-28T02:56:51.394Z,47.77
2018-07-28T02:59:21.076Z,48.50
2018-07-28T03:01:50.698Z,47.61
2018-07-28T03:04:20.832Z,48.90
2018-07-28T03:06:50.516Z,48.70
2018-07-28T03:09:20.058Z,48.72
2018-07-28T03:11:50.748Z,47.98
2018-07-28T03:14:20.617Z,47.45
2018-07-28T03:16:50.334Z,47.68
2018-07-28T03:19:20.074Z,48.19
2018-07-28T03:21:49.706Z,48.42
2018-07-28T03:24:19.377Z,49.39
2018-07-28T03:26:48.983Z,49.57
2018-07-28T03:29:18.764Z,48.99
2018-07-28T03:31:48.381Z,48.81
2018-07-28T03:34:18.207Z,48.38
2018-07-28T03:36:47.925Z,47.62
2018-07-28T03:39:17.755Z,48.63
2018-07-28T03:41:47.840Z,48.28
2018-07-28T03:44:17.519Z,48.38
2018-07-28T03:46:47.794Z,49.47
2018-07-28T03:49:17.785Z,50.15
2018-07-28T03:51:47.543Z,51.15
2018-07-28T03:54:17.256Z,50.62
2018-07-28T03:56:46.888Z,50.94
2018-07-28T03:59:19.731Z,50.95
2018-07-28T04:01:49.677Z,50.36
2018-07-28T04:04:19.419Z,49.34
2018-07-28T04:06:49.382Z,50.12
2018-07-28T04:09:19.217Z,50.52
2018-07-28T04:11:48.919Z,49.81
2018-07-28T04:14:21.409Z,49.76
2018-07-28T04:16:51.564Z,49.65
2018-07-28T04:19:22.403Z,49.66
2018-07-28T04:21:52.524Z,49.41
2018-07-28T04:24:27.269Z,48.67
2018-07-28T04:26:56.929Z,48.24
2018-07-28T04:29:26.587Z,47.42
2018-07-28T04:31:56.242Z,47.97
2018-07-28T04:34:26.219Z,48.45
2018-07-28T04:36:55.956Z,47.69
2018-07-28T04:39:26.178Z,48.64
2018-07-28T04:41:56.182Z,47.16
2018-07-28T04:44:26.154Z,48.04
2018-07-28T04:46:55.742Z,48.61
2018-07-28T04:49:25.407Z,47.65
2018-07-28T04:51:55.007Z,47.41
2018-07-28T04:54:24.718Z,47.93
2018-07-28T04:56:54.424Z,47.80
2018-07-28T04:59:24.156Z,47.19
2018-07-28T05:01:53.990Z,47.38
2018-07-28T05:04:23.733Z,48.38
2018-07-28T05:06:53.486Z,48.50
2018-07-28T05:09:23.125Z,48.04
2018-07-28T05:11:52.733Z,48.79
2018-07-28T05:14:22.377Z,47.98
2018-07-28T05:16:52.351Z,47.60
2018-07-28T05:19:22.009Z,48.41
2018-07-28T05:21:51.768Z,47.70
2018-07-28T05:24:21.386Z,47.45
2018-07-28T05:26:51.019Z,47.98
2018-07-28T05:29:20.645Z,47.61
2018-07-28T05:31:50.597Z,48.11
2018-07-28T05:34:20.474Z,48.29
2018-07-28T05:36:50.089Z,47.41
2018-07-28T05:39:19.770Z,48.05
2018-07-28T05:41:49.409Z,48.63
2018-07-28T05:44:19.207Z,48.23
2018-07-28T05:46:48.851Z,47.41
2018-07-28T05:49:18.508Z,48.22
2018-07-28T05:51:48.154Z,48.81
2018-07-28T05:54:18.417Z,48.75
2018-07-28T05:56:48.116Z,47.94
2018-07-28T05:59:18.111Z,48.66
2018-07-28T06:01:48.354Z,47.94
2018-07-28T06:04:18.313Z,48.43
2018-07-28T06:06:48.030Z,47.17
2018-07-28T06:09:17.762Z,47.02
2018-07-28T06:11:47.787Z,46.91
2018-07-28T06:14:17.516Z,46.43
2018-07-28T06:16:47.451Z,46.46
2018-07-28T06:19:17.132Z,46.59
2018-07-28T06:21:47.091Z,46.32
2018-07-28T06:24:16.762Z,45.45
2018-07-28T06:26:46.380Z,45.84
2018-07-28T06:29:15.981Z,44.38
2018-07-28T06:31:45.614Z,45.42
2018-07-28T06:34:18.454Z,43.73
2018-07-28T06:36:48.183Z,44.69
2018-07-28T06:39:18.161Z,43.23
2018-07-28T06:41:47.914Z,44.68
2018-07-28T06:44:17.678Z,44.86
2018-07-28T06:46:47.576Z,45.30
2018-07-28T06:49:17.177Z,43.72
2018-07-28T06:51:47.182Z,44.18
2018-07-28T06:54:17.448Z,44.22
2018-07-28T06:56:47.102Z,44.46
2018-07-28T06:59:17.164Z,45.83
2018-07-28T07:01:47.483Z,47.31
2018-07-28T07:04:17.654Z,47.34
2018-07-28T07:06:47.468Z,46.58
2018-07-28T07:09:17.269Z,47.68
2018-07-28T07:11:47.094Z,47.38
2018-07-28T07:14:17.172Z,46.52
2018-07-28T07:16:46.886Z,47.35
2018-07-28T07:19:25.651Z,49.09
2018-07-28T07:21:55.873Z,48.63
2018-07-28T07:24:25.686Z,49.54
2018-07-28T07:26:57.494Z,50.36
2018-07-28T07:29:27.227Z,50.19
2018-07-28T07:31:57.230Z,50.21
2018-07-28T07:34:26.926Z,48.96
2018-07-28T07:36:56.596Z,49.54
2018-07-28T07:39:26.396Z,49.18
2018-07-28T07:41:56.268Z,49.34
2018-07-28T07:44:26.362Z,50.56
2018-07-28T07:46:56.084Z,50.96
2018-07-28T07:49:25.765Z,49.75
2018-07-28T07:51:55.454Z,50.51
2018-07-28T07:54:25.397Z,49.46
2018-07-28T07:56:55.020Z,51.16
2018-07-28T07:59:24.760Z,50.81
2018-07-28T08:01:54.480Z,49.74
2018-07-28T08:04:24.211Z,49.85
2018-07-28T08:06:54.282Z,50.04
2018-07-28T08:09:23.943Z,50.24
2018-07-28T08:11:53.870Z,50.87
2018-07-28T08:14:23.710Z,51.53
2018-07-28T08:16:53.336Z,51.99
2018-07-28T08:19:23.041Z,52.42
2018-07-28T08:21:52.664Z,52.12
2018-07-28T08:24:22.493Z,52.87
2018-07-28T08:26:52.235Z,52.70
2018-07-28T08:29:25.547Z,53.66
2018-07-28T08:31:55.411Z,52.80
2018-07-28T08:34:25.049Z,53.29
2018-07-28T08:36:54.761Z,53.59
2018-07-28T08:39:24.533Z,53.02
2018-07-28T08:41:55.267Z,54.17
2018-07-28T08:44:24.962Z,53.42
2018-07-28T08:46:55.111Z,54.53
2018-07-28T08:49:24.882Z,53.89
2018-07-28T08:51:54.882Z,53.44
2018-07-28T08:54:24.571Z,54.04
2018-07-28T08:56:54.294Z,53.64
2018-07-28T08:59:24.407Z,53.21
2018-07-28T09:01:54.014Z,53.83
2018-07-28T09:04:23.721Z,53.95
2018-07-28T09:06:53.830Z,53.70
2018-07-28T09:09:23.573Z,54.15
2018-07-28T09:11:53.547Z,54.42
2018-07-28T09:14:23.208Z,53.61
2018-07-28T09:16:52.844Z,53.49
2018-07-28T09:19:22.705Z,53.90
2018-07-28T09:21:52.498Z,55.11
2018-07-28T09:24:22.180Z,53.90
2018-07-28T09:26:51.808Z,54.91
2018-07-28T09:29:21.448Z,54.86
2018-07-28T09:31:51.187Z,54.62
2018-07-28T09:34:21.219Z,53.83
2018-07-28T09:36:50.907Z,54.42
2018-07-28T09:39:21.181Z,57.59
2018-07-28T09:41:51.274Z,57.65
2018-07-28T09:44:21.216Z,56.68
2018-07-28T09:46:50.999Z,56.42
2018-07-28T09:49:21.092Z,59.57
2018-07-28T09:51:50.794Z,58.66
2018-07-28T09:54:20.926Z,59.57
2018-07-28T09:56:54.664Z,59.67
2018-07-28T09:59:27.537Z,58.34
2018-07-28T10:01:57.236Z,58.01
2018-07-28T10:04:27.456Z,57.98
2018-07-28T10:06:57.153Z,58.11
2018-07-28T10:09:26.935Z,59.49
2018-07-28T10:11:56.587Z,58.87
2018-07-28T10:14:26.578Z,57.77
2018-07-28T10:16:56.241Z,57.26
2018-07-28T10:19:26.181Z,57.82
2018-07-28T10:21:55.842Z,57.96
2018-07-28T10:24:25.486Z,57.08
2018-07-28T10:26:55.278Z,56.95
2018-07-28T10:29:25.081Z,57.63
2018-07-28T10:31:54.761Z,56.59
2018-07-28T10:34:24.429Z,56.04
2018-07-28T10:36:54.101Z,56.24
2018-07-28T10:39:23.781Z,56.29
2018-07-28T10:41:53.794Z,56.20
2018-07-28T10:44:23.504Z,56.85
2018-07-28T10:46:53.298Z,57.66
2018-07-28T10:49:22.945Z,58.58
2018-07-28T10:51:52.579Z,57.28
2018-07-28T10:54:22.427Z,57.28
2018-07-28T10:56:52.080Z,57.15
2018-07-28T10:59:21.691Z,56.94
2018-07-28T11:01:53.640Z,56.12
2018-07-28T11:04:23.336Z,57.00
2018-07-28T11:06:53.061Z,56.95
2018-07-28T11:09:22.777Z,56.08
2018-07-28T11:11:52.454Z,56.29
2018-07-28T11:14:22.694Z,56.95
2018-07-28T11:16:52.300Z,55.80
2018-07-28T11:19:22.473Z,55.55
2018-07-28T11:21:59.607Z,55.08
2018-07-28T11:24:29.314Z,54.46
2018-07-28T11:26:58.943Z,53.94
2018-07-28T11:29:28.617Z,54.33
2018-07-28T11:32:15.069Z,53.38
2018-07-28T11:35:01.724Z,52.85
2018-07-28T11:38:53.058Z,53.06
2018-07-28T11:41:39.794Z,52.27
2018-07-28T11:44:26.421Z,52.57
2018-07-28T11:46:56.392Z,52.21
2018-07-28T11:49:26.155Z,52.81
2018-07-28T11:51:56.486Z,52.17
2018-07-28T11:54:26.198Z,52.87
2018-07-28T11:56:55.822Z,52.59
2018-07-28T11:59:25.687Z,52.03
2018-07-28T12:01:55.644Z,51.50
2018-07-28T12:04:28.524Z,52.11
2018-07-28T12:06:58.198Z,51.80
2018-07-28T12:09:28.198Z,51.31
2018-07-28T12:11:58.155Z,49.96
2018-07-28T12:14:27.803Z,50.29
2018-07-28T12:17:01.073Z,49.46
2018-07-28T12:19:30.826Z,50.06
2018-07-28T12:22:00.779Z,50.62
2018-07-28T12:24:30.773Z,50.46
2018-07-28T12:27:00.602Z,49.68
2018-07-28T12:29:30.783Z,49.94
2018-07-28T12:32:00.405Z,50.31
2018-07-28T12:34:30.144Z,48.59
2018-07-28T12:37:00.116Z,48.98
2018-07-28T12:39:29.821Z,48.40
2018-07-28T12:41:59.405Z,48.00
2018-07-28T12:44:29.340Z,47.37
2018-07-28T12:46:59.317Z,47.89
2018-07-28T12:49:28.981Z,47.14
2018-07-28T12:51:59.112Z,46.01
2018-07-28T12:54:28.749Z,45.38
2018-07-28T12:56:58.404Z,44.45
2018-07-28T12:59:28.323Z,45.45
2018-07-28T13:01:57.945Z,44.46
2018-07-28T13:04:28.149Z,44.15
2018-07-28T13:06:57.798Z,44.56
2018-07-28T13:09:27.493Z,44.01
2018-07-28T13:11:57.193Z,44.03
2018-07-28T13:14:26.899Z,43.04
2018-07-28T13:16:56.885Z,43.88
2018-07-28T13:19:26.701Z,43.50
2018-07-28T13:21:56.383Z,43.56
2018-07-28T13:24:25.998Z,43.93
2018-07-28T13:26:55.713Z,42.83
2018-07-28T13:29:25.530Z,43.20
2018-07-28T13:31:55.256Z,42.58
2018-07-28T13:34:25.013Z,41.91
2018-07-28T13:36:54.726Z,42.95
2018-07-28T13:39:24.443Z,43.43
2018-07-28T13:41:54.324Z,43.08
2018-07-28T13:44:24.042Z,42.54
2018-07-28T13:46:54.129Z,42.70
2018-07-28T13:49:23.771Z,43.25
2018-07-28T13:51:53.709Z,41.53
2018-07-28T13:54:23.457Z,42.15
2018-07-28T13:56:53.132Z,41.09
2018-07-28T13:59:22.825Z,42.42
2018-07-28T14:01:52.581Z,42.78
2018-07-28T14:04:22.272Z,43.04
2018-07-28T14:06:52.027Z,42.20
2018-07-28T14:09:22.055Z,42.02
2018-07-28T14:11:51.771Z,42.50
2018-07-28T14:14:21.779Z,41.48
2018-07-28T14:16:52.489Z,41.53
2018-07-28T14:19:22.326Z,42.15
2018-07-28T14:21:52.341Z,42.61
2018-07-28T14:24:22.011Z,42.13
2018-07-28T14:26:51.688Z,42.62
2018-07-28T14:29:21.353Z,41.60
2018-07-28T14:31:51.232Z,42.23
2018-07-28T14:34:21.392Z,41.65
2018-07-28T14:36:51.277Z,42.38
2018-07-28T14:39:21.560Z,41.58
2018-07-28T14:41:52.050Z,41.59
2018-07-28T14:44:23.721Z,41.85
2018-07-28T14:46:53.508Z,42.14
2018-07-28T14:49:23.634Z,42.72
2018-07-28T14:51:53.535Z,42.02
2018-07-28T14:54:23.427Z,40.88
2018-07-28T14:56:53.287Z,41.13
2018-07-28T14:59:23.534Z,39.98
2018-07-28T15:01:53.313Z,39.84
2018-07-28T15:04:23.115Z,40.01
2018-07-28T15:06:52.909Z,40.08
2018-07-28T15:09:23.274Z,39.21
2018-07-28T15:11:53.201Z,39.37
2018-07-28T15:14:23.070Z,40.08
2018-07-28T15:16:53.130Z,41.32
2018-07-28T15:19:22.834Z,42.51
2018-07-28T15:21:53.013Z,41.59
2018-07-28T15:24:22.867Z,41.99
2018-07-28T15:26:52.585Z,42.93
2018-07-28T15:29:22.218Z,42.84
2018-07-28T15:31:51.884Z,42.59
2018-07-28T15:34:21.626Z,44.04
2018-07-28T15:36:51.689Z,43.76
2018-07-28T15:39:21.869Z,44.09
2018-07-28T15:41:51.584Z,44.19
2018-07-28T15:44:21.228Z,43.89
2018-07-28T15:46:51.308Z,45.46
2018-07-28T15:49:24.551Z,46.07
2018-07-28T15:51:58.167Z,46.55
2018-07-28T15:54:27.768Z,47.30
2018-07-28T15:56:57.422Z,46.69
2018-07-28T15:59:27.783Z,47.30
2018-07-28T16:01:57.414Z,46.59
2018-07-28T16:04:27.093Z,46.53
2018-07-28T16:06:56.763Z,46.71
2018-07-28T16:09:26.865Z,47.40
2018-07-28T16:11:56.627Z,46.70
2018-07-28T16:14:26.325Z,46.93
2018-07-28T16:16:59.006Z,48.36
2018-07-28T16:19:28.628Z,45.83
2018-07-28T16:21:58.268Z,46.90
2018-07-28T16:24:27.933Z,47.00
2018-07-28T16:26:57.594Z,47.71
2018-07-28T16:29:27.247Z,49.09
2018-07-28T16:31:59.361Z,50.22
2018-07-28T16:34:30.727Z,50.84
2018-07-28T16:37:00.722Z,51.56
2018-07-28T16:39:30.381Z,52.60
2018-07-28T16:41:59.992Z,52.27
2018-07-28T16:44:29.629Z,53.84
2018-07-28T16:46:59.227Z,53.83
2018-07-28T16:49:28.870Z,53.65
2018-07-28T16:51:58.576Z,54.55
2018-07-28T16:54:28.209Z,54.66
2018-07-28T16:56:57.840Z,54.67
2018-07-28T16:59:27.415Z,55.04
2018-07-28T17:01:57.152Z,56.04
2018-07-28T17:04:27.194Z,57.39
2018-07-28T17:06:57.099Z,57.13
2018-07-28T17:09:26.764Z,57.40
2018-07-28T17:11:56.493Z,57.19
2018-07-28T17:14:26.457Z,59.11
2018-07-28T17:16:56.429Z,59.23
2018-07-28T17:19:26.108Z,58.07
2018-07-28T17:21:55.752Z,57.99
2018-07-28T17:24:25.436Z,58.15
2018-07-28T17:26:55.268Z,58.29
2018-07-28T17:29:24.988Z,59.40
2018-07-28T17:31:54.921Z,59.52
2018-07-28T17:34:24.510Z,59.35
2018-07-28T17:36:54.143Z,57.83
2018-07-28T17:39:23.752Z,57.45
2018-07-28T17:41:53.430Z,57.63
2018-07-28T17:44:23.194Z,57.53
2018-07-28T17:46:53.023Z,57.91
2018-07-28T17:49:22.899Z,57.48
2018-07-28T17:51:52.528Z,58.27
2018-07-28T17:54:22.266Z,59.12
2018-07-28T17:56:52.041Z,59.89
2018-07-28T17:59:21.694Z,61.08
2018-07-28T18:01:51.495Z,61.36
2018-07-28T18:04:21.096Z,62.70
2018-07-28T18:06:50.811Z,64.46
2018-07-28T18:09:20.710Z,64.97
2018-07-28T18:11:50.410Z,64.88
2018-07-28T18:14:20.127Z,65.56
2018-07-28T18:16:49.771Z,64.69
2018-07-28T18:19:19.446Z,65.77
2018-07-28T18:21:49.379Z,64.89
2018-07-28T18:24:19.163Z,66.15
2018-07-28T18:26:48.990Z,66.58
2018-07-28T18:29:18.829Z,65.50
2018-07-28T18:31:48.547Z,66.46
2018-07-28T18:34:18.217Z,66.58
2018-07-28T18:36:48.081Z,67.71
2018-07-28T18:39:17.771Z,67.37
2018-07-28T18:41:47.465Z,68.38
2018-07-28T18:44:17.732Z,66.93
2018-07-28T18:46:47.393Z,66.79
2018-07-28T18:49:17.065Z,66.45
2018-07-28T18:51:46.902Z,65.34
2018-07-28T18:54:17.145Z,66.20
2018-07-28T18:56:46.763Z,65.10
2018-07-28T18:59:16.681Z,65.18
2018-07-28T19:01:46.285Z,64.20
2018-07-28T19:04:15.970Z,64.62
2018-07-28T19:06:45.639Z,65.03
2018-07-28T19:09:20.674Z,64.30
2018-07-28T19:11:50.601Z,64.05
2018-07-28T19:14:25.704Z,65.25
2018-07-28T19:16:55.974Z,65.60
2018-07-28T19:19:25.645Z,66.30
2018-07-28T19:21:55.528Z,66.38
2018-07-28T19:24:25.632Z,66.05
2018-07-28T19:26:55.473Z,66.14
2018-07-28T19:29:30.326Z,66.60
2018-07-28T19:31:59.994Z,67.07
2018-07-28T19:34:29.677Z,68.22
2018-07-28T19:37:04.430Z,68.59
2018-07-28T19:39:34.110Z,68.25
2018-07-28T19:42:08.839Z,68.61
2018-07-28T19:44:38.864Z,68.18
2018-07-28T19:47:08.542Z,67.80
2018-07-28T19:49:38.967Z,66.81
2018-07-28T19:52:08.922Z,67.69
2018-07-28T19:54:38.601Z,66.66
2018-07-28T19:57:08.627Z,67.10
2018-07-28T19:59:40.007Z,66.53
2018-07-28T20:02:10.280Z,66.19
2018-07-28T20:04:40.098Z,66.64
2018-07-28T20:07:10.040Z,67.75
2018-07-28T20:09:40.200Z,66.77
2018-07-28T20:12:10.014Z,67.43
2018-07-28T20:14:41.840Z,67.87
2018-07-28T20:17:11.986Z,67.85
2018-07-28T20:19:41.810Z,68.39
2018-07-28T20:22:12.417Z,67.62
2018-07-28T20:24:42.618Z,68.45
2018-07-28T20:27:12.517Z,67.96
2018-07-28T20:29:42.306Z,69.13
2018-07-28T20:32:12.354Z,70.27
2018-07-28T20:34:42.463Z,71.93
2018-07-28T20:37:12.796Z,70.87
2018-07-28T20:39:49.214Z,69.67
2018-07-28T20:42:24.632Z,70.38
2018-07-28T20:44:54.378Z,69.50
2018-07-28T20:47:30.336Z,70.39
2018-07-28T20:50:00.638Z,70.37
2018-07-28T20:52:30.376Z,71.14
2018-07-28T20:55:00.075Z,70.71
2018-07-28T20:57:29.908Z,69.67
2018-07-28T20:59:59.639Z,69.84
2018-07-28T21:02:29.430Z,69.39
2018-07-28T21:04:59.174Z,70.45
2018-07-28T21:07:29.213Z,70.32
2018-07-28T21:09:58.944Z,71.10
2018-07-28T21:12:28.817Z,71.09
2018-07-28T21:14:58.944Z,70.36
2018-07-28T21:17:31.435Z,71.72
2018-07-28T21:20:01.328Z,71.36
2018-07-28T21:22:31.076Z,71.02
2018-07-28T21:25:00.709Z,71.42
2018-07-28T21:27:30.382Z,70.70
2018-07-28T21:30:00.143Z,71.81
2018-07-28T21:32:29.923Z,71.62
2018-07-28T21:34:59.564Z,70.76
2018-07-28T21:37:29.274Z,69.47
2018-07-28T21:39:58.973Z,70.99
2018-07-28T21:42:28.614Z,71.21
2018-07-28T21:44:58.272Z,71.21
2018-07-28T21:47:27.944Z,71.46
2018-07-28T21:49:57.572Z,71.37
2018-07-28T21:52:27.224Z,73.10
2018-07-28T21:54:56.878Z,72.79
2018-07-28T21:57:26.558Z,72.54
2018-07-28T21:59:56.217Z,72.59
2018-07-28T22:02:25.901Z,72.51
2018-07-28T22:04:55.618Z,72.58
2018-07-28T22:07:25.458Z,72.62
2018-07-28T22:09:55.328Z,72.55
2018-07-28T22:12:25.156Z,72.90
2018-07-28T22:14:54.835Z,72.23
2018-07-28T22:17:25.268Z,72.98
2018-07-28T22:19:55.006Z,72.26
2018-07-28T22:22:25.125Z,72.38
2018-07-28T22:24:54.882Z,71.62
2018-07-28T22:27:24.587Z,72.82
2018-07-28T22:29:54.314Z,73.30
2018-07-28T22:32:23.942Z,74.25
2018-07-28T22:34:54.049Z,74.47
2018-07-28T22:37:23.739Z,75.17
2018-07-28T22:39:53.425Z,74.29
2018-07-28T22:42:38.669Z,73.73
2018-07-28T22:45:08.521Z,73.64
2018-07-28T22:47:38.235Z,74.15
2018-07-28T22:50:08.451Z,74.54
2018-07-28T22:52:38.102Z,75.26
2018-07-28T22:55:08.742Z,74.01
2018-07-28T22:57:38.738Z,74.73
2018-07-28T23:00:09.076Z,73.57
2018-07-28T23:02:39.130Z,74.29
2018-07-28T23:05:09.895Z,73.21
2018-07-28T23:07:39.543Z,73.51
2018-07-28T23:10:09.441Z,74.40
2018-07-28T23:12:39.182Z,73.25
2018-07-28T23:15:08.866Z,73.56
2018-07-28T23:17:39.323Z,72.47
2018-07-28T23:20:09.139Z,73.18
2018-07-28T23:22:38.954Z,74.45
2018-07-28T23:25:09.506Z,74.03
2018-07-28T23:27:39.150Z,73.25
2018-07-28T23:30:11.717Z,73.52
2018-07-28T23:32:41.356Z,72.54
2018-07-28T23:35:11.563Z,72.64
2018-07-28T23:37:41.286Z,72.42
2018-07-28T23:40:11.033Z,72.32
2018-07-28T23:42:41.213Z,72.19
2018-07-28T23:45:11.204Z,73.18
2018-07-28T23:47:40.922Z,73.50
2018-07-28T23:50:10.875Z,73.51
2018-07-28T23:52:40.624Z,73.49
2018-07-28T23:55:10.296Z,72.81
2018-07-28T23:57:40.018Z,74.44
